sensor_id;sensor_type;location;lat;lon;timestamp;P1;durP1;ratioP1;P2;durP2;ratioP2
6671;SDS011;3372;48.690;12.362;2023-05-07T00:00:20;4.70;;;4.00;;
6671;SDS011;3372;48.690;12.362;2023-05-07T00:02:46;5.03;;;3.90;;
6671;SDS011;3372;48.690;12.362;2023-05-07T00:05:12;4.87;;;4.20;;
6671;SDS011;3372;48.690;12.362;2023-05-07T00:07:37;4.73;;;4.23;;
6671;SDS011;3372;48.690;12.362;2023-05-07T00:10:03;6.20;;;4.30;;
6671;SDS011;3372;48.690;12.362;2023-05-07T00:12:31;5.70;;;4.33;;
6671;SDS011;3372;48.690;12.362;2023-05-07T00:14:58;4.50;;;4.10;;
6671;SDS011;3372;48.690;12.362;2023-05-07T00:17:27;5.67;;;4.17;;
6671;SDS011;3372;48.690;12.362;2023-05-07T00:19:52;5.57;;;4.17;;
6671;SDS011;3372;48.690;12.362;2023-05-07T00:22:18;5.83;;;4.57;;
6671;SDS011;3372;48.690;12.362;2023-05-07T00:24:43;7.03;;;4.40;;
6671;SDS011;3372;48.690;12.362;2023-05-07T00:27:09;6.53;;;4.40;;
6671;SDS011;3372;48.690;12.362;2023-05-07T00:29:34;5.50;;;4.27;;
6671;SDS011;3372;48.690;12.362;2023-05-07T00:32:01;6.50;;;5.07;;
6671;SDS011;3372;48.690;12.362;2023-05-07T00:34:27;5.00;;;4.23;;
6671;SDS011;3372;48.690;12.362;2023-05-07T00:36:52;6.10;;;4.60;;
6671;SDS011;3372;48.690;12.362;2023-05-07T00:39:18;6.53;;;4.10;;
6671;SDS011;3372;48.690;12.362;2023-05-07T00:41:44;4.33;;;3.87;;
6671;SDS011;3372;48.690;12.362;2023-05-07T00:44:10;5.33;;;4.00;;
6671;SDS011;3372;48.690;12.362;2023-05-07T00:46:35;5.33;;;4.30;;
6671;SDS011;3372;48.690;12.362;2023-05-07T00:49:01;9.10;;;4.20;;
6671;SDS011;3372;48.690;12.362;2023-05-07T00:51:27;5.00;;;4.50;;
6671;SDS011;3372;48.690;12.362;2023-05-07T00:53:53;5.33;;;4.10;;
6671;SDS011;3372;48.690;12.362;2023-05-07T00:56:22;4.60;;;4.03;;
6671;SDS011;3372;48.690;12.362;2023-05-07T00:58:49;5.20;;;4.00;;
6671;SDS011;3372;48.690;12.362;2023-05-07T01:01:15;5.33;;;4.30;;
6671;SDS011;3372;48.690;12.362;2023-05-07T01:03:41;4.57;;;4.17;;
6671;SDS011;3372;48.690;12.362;2023-05-07T01:06:07;5.97;;;4.90;;
6671;SDS011;3372;48.690;12.362;2023-05-07T01:08:34;5.77;;;4.63;;
6671;SDS011;3372;48.690;12.362;2023-05-07T01:11:01;4.83;;;4.03;;
6671;SDS011;3372;48.690;12.362;2023-05-07T01:13:27;7.83;;;5.60;;
6671;SDS011;3372;48.690;12.362;2023-05-07T01:15:53;8.67;;;7.10;;
6671;SDS011;3372;48.690;12.362;2023-05-07T01:18:19;9.30;;;8.07;;
6671;SDS011;3372;48.690;12.362;2023-05-07T01:20:45;10.10;;;7.20;;
6671;SDS011;3372;48.690;12.362;2023-05-07T01:23:10;17.87;;;15.97;;
6671;SDS011;3372;48.690;12.362;2023-05-07T01:25:37;5.80;;;5.10;;
6671;SDS011;3372;48.690;12.362;2023-05-07T01:28:02;5.63;;;4.50;;
6671;SDS011;3372;48.690;12.362;2023-05-07T01:30:28;6.77;;;4.40;;
6671;SDS011;3372;48.690;12.362;2023-05-07T01:33:00;5.00;;;4.43;;
6671;SDS011;3372;48.690;12.362;2023-05-07T01:35:36;5.87;;;4.30;;
6671;SDS011;3372;48.690;12.362;2023-05-07T01:38:05;5.47;;;4.87;;
6671;SDS011;3372;48.690;12.362;2023-05-07T01:40:32;4.80;;;3.97;;
6671;SDS011;3372;48.690;12.362;2023-05-07T01:42:59;5.03;;;4.10;;
6671;SDS011;3372;48.690;12.362;2023-05-07T01:45:25;4.53;;;4.13;;
6671;SDS011;3372;48.690;12.362;2023-05-07T01:47:52;6.70;;;4.63;;
6671;SDS011;3372;48.690;12.362;2023-05-07T01:50:18;5.63;;;4.70;;
6671;SDS011;3372;48.690;12.362;2023-05-07T01:52:45;5.30;;;4.33;;
6671;SDS011;3372;48.690;12.362;2023-05-07T01:55:11;4.80;;;3.90;;
6671;SDS011;3372;48.690;12.362;2023-05-07T01:57:37;6.23;;;4.30;;
6671;SDS011;3372;48.690;12.362;2023-05-07T02:00:03;8.77;;;4.20;;
6671;SDS011;3372;48.690;12.362;2023-05-07T02:02:30;4.70;;;3.90;;
6671;SDS011;3372;48.690;12.362;2023-05-07T02:04:55;8.90;;;5.00;;
6671;SDS011;3372;48.690;12.362;2023-05-07T02:07:21;5.00;;;4.23;;
6671;SDS011;3372;48.690;12.362;2023-05-07T02:09:47;4.97;;;3.77;;
6671;SDS011;3372;48.690;12.362;2023-05-07T02:12:12;6.13;;;4.53;;
6671;SDS011;3372;48.690;12.362;2023-05-07T02:14:38;4.63;;;3.87;;
6671;SDS011;3372;48.690;12.362;2023-05-07T02:17:04;5.43;;;4.17;;
6671;SDS011;3372;48.690;12.362;2023-05-07T02:19:29;5.17;;;4.40;;
6671;SDS011;3372;48.690;12.362;2023-05-07T02:21:55;4.93;;;4.43;;
6671;SDS011;3372;48.690;12.362;2023-05-07T02:24:21;4.60;;;4.20;;
6671;SDS011;3372;48.690;12.362;2023-05-07T02:26:46;6.43;;;4.80;;
6671;SDS011;3372;48.690;12.362;2023-05-07T02:29:12;6.27;;;4.30;;
6671;SDS011;3372;48.690;12.362;2023-05-07T02:31:37;5.63;;;4.90;;
6671;SDS011;3372;48.690;12.362;2023-05-07T02:34:03;8.13;;;5.30;;
6671;SDS011;3372;48.690;12.362;2023-05-07T02:36:29;4.90;;;4.40;;
6671;SDS011;3372;48.690;12.362;2023-05-07T02:38:54;9.60;;;4.83;;
6671;SDS011;3372;48.690;12.362;2023-05-07T02:41:20;5.37;;;4.60;;
6671;SDS011;3372;48.690;12.362;2023-05-07T02:43:46;8.50;;;4.70;;
6671;SDS011;3372;48.690;12.362;2023-05-07T02:46:11;7.20;;;4.07;;
6671;SDS011;3372;48.690;12.362;2023-05-07T02:48:37;5.00;;;4.03;;
6671;SDS011;3372;48.690;12.362;2023-05-07T02:51:03;5.37;;;4.40;;
6671;SDS011;3372;48.690;12.362;2023-05-07T02:53:29;5.70;;;3.90;;
6671;SDS011;3372;48.690;12.362;2023-05-07T02:55:58;7.20;;;4.63;;
6671;SDS011;3372;48.690;12.362;2023-05-07T02:58:25;6.13;;;5.27;;
6671;SDS011;3372;48.690;12.362;2023-05-07T03:00:51;8.20;;;6.10;;
6671;SDS011;3372;48.690;12.362;2023-05-07T03:03:17;7.57;;;6.60;;
6671;SDS011;3372;48.690;12.362;2023-05-07T03:05:43;7.80;;;6.20;;
6671;SDS011;3372;48.690;12.362;2023-05-07T03:08:09;6.80;;;5.23;;
6671;SDS011;3372;48.690;12.362;2023-05-07T03:10:35;8.37;;;5.40;;
6671;SDS011;3372;48.690;12.362;2023-05-07T03:13:01;9.73;;;6.17;;
6671;SDS011;3372;48.690;12.362;2023-05-07T03:15:27;7.57;;;5.80;;
6671;SDS011;3372;48.690;12.362;2023-05-07T03:17:52;7.43;;;5.87;;
6671;SDS011;3372;48.690;12.362;2023-05-07T03:20:18;8.90;;;5.97;;
6671;SDS011;3372;48.690;12.362;2023-05-07T03:22:44;7.23;;;4.73;;
6671;SDS011;3372;48.690;12.362;2023-05-07T03:25:09;5.53;;;5.03;;
6671;SDS011;3372;48.690;12.362;2023-05-07T03:27:35;7.60;;;5.40;;
6671;SDS011;3372;48.690;12.362;2023-05-07T03:30:01;5.80;;;5.20;;
6671;SDS011;3372;48.690;12.362;2023-05-07T03:32:27;6.87;;;5.20;;
6671;SDS011;3372;48.690;12.362;2023-05-07T03:34:53;6.10;;;5.17;;
6671;SDS011;3372;48.690;12.362;2023-05-07T03:37:18;6.73;;;4.90;;
6671;SDS011;3372;48.690;12.362;2023-05-07T03:39:44;5.70;;;5.10;;
6671;SDS011;3372;48.690;12.362;2023-05-07T03:42:09;5.50;;;4.63;;
6671;SDS011;3372;48.690;12.362;2023-05-07T03:44:35;6.53;;;5.23;;
6671;SDS011;3372;48.690;12.362;2023-05-07T03:47:01;7.33;;;5.53;;
6671;SDS011;3372;48.690;12.362;2023-05-07T03:49:27;6.23;;;4.97;;
6671;SDS011;3372;48.690;12.362;2023-05-07T03:51:53;6.27;;;5.20;;
6671;SDS011;3372;48.690;12.362;2023-05-07T03:54:19;6.87;;;5.50;;
6671;SDS011;3372;48.690;12.362;2023-05-07T03:56:44;6.60;;;5.13;;
6671;SDS011;3372;48.690;12.362;2023-05-07T03:59:10;7.50;;;5.70;;
6671;SDS011;3372;48.690;12.362;2023-05-07T04:01:36;12.20;;;6.10;;
6671;SDS011;3372;48.690;12.362;2023-05-07T04:04:02;7.70;;;5.73;;
6671;SDS011;3372;48.690;12.362;2023-05-07T04:06:29;6.20;;;4.83;;
6671;SDS011;3372;48.690;12.362;2023-05-07T04:08:54;11.80;;;6.30;;
6671;SDS011;3372;48.690;12.362;2023-05-07T04:11:20;6.23;;;5.30;;
6671;SDS011;3372;48.690;12.362;2023-05-07T04:13:46;6.10;;;5.50;;
6671;SDS011;3372;48.690;12.362;2023-05-07T04:16:11;6.90;;;5.60;;
6671;SDS011;3372;48.690;12.362;2023-05-07T04:18:37;7.10;;;5.77;;
6671;SDS011;3372;48.690;12.362;2023-05-07T04:21:02;6.03;;;5.40;;
6671;SDS011;3372;48.690;12.362;2023-05-07T04:23:28;6.77;;;5.30;;
6671;SDS011;3372;48.690;12.362;2023-05-07T04:25:54;7.60;;;5.50;;
6671;SDS011;3372;48.690;12.362;2023-05-07T04:28:20;6.33;;;5.73;;
6671;SDS011;3372;48.690;12.362;2023-05-07T04:30:45;6.57;;;5.70;;
6671;SDS011;3372;48.690;12.362;2023-05-07T04:33:11;7.50;;;6.27;;
6671;SDS011;3372;48.690;12.362;2023-05-07T04:35:37;7.93;;;6.20;;
6671;SDS011;3372;48.690;12.362;2023-05-07T04:38:02;7.40;;;6.00;;
6671;SDS011;3372;48.690;12.362;2023-05-07T04:40:28;7.20;;;6.07;;
6671;SDS011;3372;48.690;12.362;2023-05-07T04:42:54;6.33;;;5.63;;
6671;SDS011;3372;48.690;12.362;2023-05-07T04:45:19;7.30;;;5.70;;
6671;SDS011;3372;48.690;12.362;2023-05-07T04:47:45;9.77;;;7.07;;
6671;SDS011;3372;48.690;12.362;2023-05-07T04:50:10;8.33;;;5.97;;
6671;SDS011;3372;48.690;12.362;2023-05-07T04:52:36;7.03;;;5.80;;
6671;SDS011;3372;48.690;12.362;2023-05-07T04:55:02;6.93;;;5.83;;
6671;SDS011;3372;48.690;12.362;2023-05-07T04:57:28;7.17;;;5.17;;
6671;SDS011;3372;48.690;12.362;2023-05-07T04:59:53;6.57;;;5.70;;
6671;SDS011;3372;48.690;12.362;2023-05-07T05:02:19;7.63;;;6.63;;
6671;SDS011;3372;48.690;12.362;2023-05-07T05:04:45;11.23;;;6.90;;
6671;SDS011;3372;48.690;12.362;2023-05-07T05:07:10;7.57;;;6.40;;
6671;SDS011;3372;48.690;12.362;2023-05-07T05:09:36;9.83;;;6.40;;
6671;SDS011;3372;48.690;12.362;2023-05-07T05:12:02;7.57;;;6.63;;
6671;SDS011;3372;48.690;12.362;2023-05-07T05:14:28;8.67;;;7.40;;
6671;SDS011;3372;48.690;12.362;2023-05-07T05:16:54;8.67;;;7.57;;
6671;SDS011;3372;48.690;12.362;2023-05-07T05:19:20;10.70;;;8.57;;
6671;SDS011;3372;48.690;12.362;2023-05-07T05:21:45;11.00;;;9.63;;
6671;SDS011;3372;48.690;12.362;2023-05-07T05:24:11;8.27;;;7.47;;
6671;SDS011;3372;48.690;12.362;2023-05-07T05:26:36;8.70;;;7.77;;
6671;SDS011;3372;48.690;12.362;2023-05-07T05:29:02;10.13;;;7.17;;
6671;SDS011;3372;48.690;12.362;2023-05-07T05:31:27;9.63;;;7.77;;
6671;SDS011;3372;48.690;12.362;2023-05-07T05:33:53;7.13;;;6.27;;
6671;SDS011;3372;48.690;12.362;2023-05-07T05:36:19;8.80;;;7.57;;
6671;SDS011;3372;48.690;12.362;2023-05-07T05:38:44;9.80;;;8.33;;
6671;SDS011;3372;48.690;12.362;2023-05-07T05:41:10;9.10;;;8.20;;
6671;SDS011;3372;48.690;12.362;2023-05-07T05:43:36;8.70;;;7.27;;
6671;SDS011;3372;48.690;12.362;2023-05-07T05:46:02;7.10;;;6.40;;
6671;SDS011;3372;48.690;12.362;2023-05-07T05:48:29;8.47;;;6.77;;
6671;SDS011;3372;48.690;12.362;2023-05-07T05:50:54;8.27;;;6.80;;
6671;SDS011;3372;48.690;12.362;2023-05-07T05:53:20;7.30;;;6.60;;
6671;SDS011;3372;48.690;12.362;2023-05-07T05:55:46;7.37;;;6.63;;
6671;SDS011;3372;48.690;12.362;2023-05-07T05:58:11;9.13;;;6.57;;
6671;SDS011;3372;48.690;12.362;2023-05-07T06:00:37;8.50;;;6.57;;
6671;SDS011;3372;48.690;12.362;2023-05-07T06:03:03;6.77;;;5.70;;
6671;SDS011;3372;48.690;12.362;2023-05-07T06:05:28;6.93;;;6.23;;
6671;SDS011;3372;48.690;12.362;2023-05-07T06:07:54;7.80;;;5.97;;
6671;SDS011;3372;48.690;12.362;2023-05-07T06:10:19;7.43;;;6.70;;
6671;SDS011;3372;48.690;12.362;2023-05-07T06:12:45;11.00;;;7.73;;
6671;SDS011;3372;48.690;12.362;2023-05-07T06:15:11;6.90;;;6.30;;
6671;SDS011;3372;48.690;12.362;2023-05-07T06:17:36;10.47;;;6.93;;
6671;SDS011;3372;48.690;12.362;2023-05-07T06:20:02;9.13;;;6.73;;
6671;SDS011;3372;48.690;12.362;2023-05-07T06:22:28;8.93;;;6.00;;
6671;SDS011;3372;48.690;12.362;2023-05-07T06:24:54;9.07;;;6.80;;
6671;SDS011;3372;48.690;12.362;2023-05-07T06:27:19;9.50;;;7.13;;
6671;SDS011;3372;48.690;12.362;2023-05-07T06:29:47;9.13;;;7.10;;
6671;SDS011;3372;48.690;12.362;2023-05-07T06:32:13;7.70;;;6.50;;
6671;SDS011;3372;48.690;12.362;2023-05-07T06:34:39;7.60;;;6.67;;
6671;SDS011;3372;48.690;12.362;2023-05-07T06:37:06;7.37;;;6.60;;
6671;SDS011;3372;48.690;12.362;2023-05-07T06:39:32;8.40;;;7.60;;
6671;SDS011;3372;48.690;12.362;2023-05-07T06:41:59;7.70;;;6.60;;
6671;SDS011;3372;48.690;12.362;2023-05-07T06:44:25;7.00;;;6.30;;
6671;SDS011;3372;48.690;12.362;2023-05-07T06:46:51;7.40;;;6.60;;
6671;SDS011;3372;48.690;12.362;2023-05-07T06:49:16;6.90;;;6.20;;
6671;SDS011;3372;48.690;12.362;2023-05-07T06:51:42;6.70;;;5.80;;
6671;SDS011;3372;48.690;12.362;2023-05-07T06:54:08;7.70;;;6.90;;
6671;SDS011;3372;48.690;12.362;2023-05-07T06:56:33;6.20;;;5.60;;
6671;SDS011;3372;48.690;12.362;2023-05-07T06:58:59;6.40;;;5.50;;
6671;SDS011;3372;48.690;12.362;2023-05-07T07:01:25;5.10;;;4.60;;
6671;SDS011;3372;48.690;12.362;2023-05-07T07:03:51;8.00;;;6.17;;
6671;SDS011;3372;48.690;12.362;2023-05-07T07:06:17;7.23;;;6.47;;
6671;SDS011;3372;48.690;12.362;2023-05-07T07:08:43;6.80;;;5.87;;
6671;SDS011;3372;48.690;12.362;2023-05-07T07:11:09;7.10;;;6.17;;
6671;SDS011;3372;48.690;12.362;2023-05-07T07:13:35;9.13;;;8.23;;
6671;SDS011;3372;48.690;12.362;2023-05-07T07:16:01;5.67;;;5.17;;
6671;SDS011;3372;48.690;12.362;2023-05-07T07:18:26;5.50;;;5.00;;
6671;SDS011;3372;48.690;12.362;2023-05-07T07:20:52;6.67;;;5.97;;
6671;SDS011;3372;48.690;12.362;2023-05-07T07:23:18;6.40;;;5.60;;
6671;SDS011;3372;48.690;12.362;2023-05-07T07:25:44;7.53;;;5.57;;
6671;SDS011;3372;48.690;12.362;2023-05-07T07:28:10;7.40;;;5.17;;
6671;SDS011;3372;48.690;12.362;2023-05-07T07:30:36;6.57;;;5.10;;
6671;SDS011;3372;48.690;12.362;2023-05-07T07:33:02;8.30;;;5.77;;
6671;SDS011;3372;48.690;12.362;2023-05-07T07:35:28;5.97;;;5.37;;
6671;SDS011;3372;48.690;12.362;2023-05-07T07:37:55;6.30;;;5.40;;
6671;SDS011;3372;48.690;12.362;2023-05-07T07:40:20;6.77;;;5.83;;
6671;SDS011;3372;48.690;12.362;2023-05-07T07:42:46;6.37;;;5.77;;
6671;SDS011;3372;48.690;12.362;2023-05-07T07:45:12;6.90;;;5.70;;
6671;SDS011;3372;48.690;12.362;2023-05-07T07:47:38;6.10;;;5.43;;
6671;SDS011;3372;48.690;12.362;2023-05-07T07:50:06;6.17;;;5.57;;
6671;SDS011;3372;48.690;12.362;2023-05-07T07:52:33;6.40;;;5.60;;
6671;SDS011;3372;48.690;12.362;2023-05-07T07:54:58;6.80;;;6.20;;
6671;SDS011;3372;48.690;12.362;2023-05-07T07:57:24;7.17;;;5.87;;
6671;SDS011;3372;48.690;12.362;2023-05-07T07:59:50;7.47;;;5.43;;
6671;SDS011;3372;48.690;12.362;2023-05-07T08:02:16;6.10;;;5.50;;
6671;SDS011;3372;48.690;12.362;2023-05-07T08:04:42;9.57;;;6.03;;
6671;SDS011;3372;48.690;12.362;2023-05-07T08:07:08;6.93;;;6.23;;
6671;SDS011;3372;48.690;12.362;2023-05-07T08:09:35;6.70;;;6.10;;
6671;SDS011;3372;48.690;12.362;2023-05-07T08:12:01;6.97;;;6.30;;
6671;SDS011;3372;48.690;12.362;2023-05-07T08:14:27;6.40;;;5.60;;
6671;SDS011;3372;48.690;12.362;2023-05-07T08:16:53;6.77;;;5.83;;
6671;SDS011;3372;48.690;12.362;2023-05-07T08:19:19;6.10;;;5.27;;
6671;SDS011;3372;48.690;12.362;2023-05-07T08:21:45;7.20;;;5.70;;
6671;SDS011;3372;48.690;12.362;2023-05-07T08:24:15;6.70;;;6.07;;
6671;SDS011;3372;48.690;12.362;2023-05-07T08:26:41;7.70;;;5.60;;
6671;SDS011;3372;48.690;12.362;2023-05-07T08:29:07;6.83;;;6.13;;
6671;SDS011;3372;48.690;12.362;2023-05-07T08:31:33;6.10;;;5.50;;
6671;SDS011;3372;48.690;12.362;2023-05-07T08:33:58;6.93;;;6.27;;
6671;SDS011;3372;48.690;12.362;2023-05-07T08:36:26;6.13;;;5.53;;
6671;SDS011;3372;48.690;12.362;2023-05-07T08:38:52;7.53;;;6.43;;
6671;SDS011;3372;48.690;12.362;2023-05-07T08:41:18;7.40;;;6.70;;
6671;SDS011;3372;48.690;12.362;2023-05-07T08:43:47;7.97;;;6.50;;
6671;SDS011;3372;48.690;12.362;2023-05-07T08:46:16;6.87;;;5.90;;
6671;SDS011;3372;48.690;12.362;2023-05-07T08:48:44;6.63;;;5.93;;
6671;SDS011;3372;48.690;12.362;2023-05-07T08:51:13;7.40;;;6.70;;
6671;SDS011;3372;48.690;12.362;2023-05-07T08:53:43;7.10;;;6.40;;
6671;SDS011;3372;48.690;12.362;2023-05-07T08:56:10;7.57;;;6.90;;
6671;SDS011;3372;48.690;12.362;2023-05-07T08:58:36;6.73;;;6.10;;
6671;SDS011;3372;48.690;12.362;2023-05-07T09:01:08;8.43;;;7.50;;
6671;SDS011;3372;48.690;12.362;2023-05-07T09:03:37;10.63;;;7.43;;
6671;SDS011;3372;48.690;12.362;2023-05-07T09:06:04;7.80;;;7.00;;
6671;SDS011;3372;48.690;12.362;2023-05-07T09:08:30;7.53;;;6.83;;
6671;SDS011;3372;48.690;12.362;2023-05-07T09:10:58;6.90;;;6.20;;
6671;SDS011;3372;48.690;12.362;2023-05-07T09:13:24;6.77;;;6.07;;
6671;SDS011;3372;48.690;12.362;2023-05-07T09:15:49;7.17;;;6.27;;
6671;SDS011;3372;48.690;12.362;2023-05-07T09:18:15;6.50;;;5.90;;
6671;SDS011;3372;48.690;12.362;2023-05-07T09:20:41;6.90;;;6.20;;
6671;SDS011;3372;48.690;12.362;2023-05-07T09:23:07;6.00;;;5.40;;
6671;SDS011;3372;48.690;12.362;2023-05-07T09:25:33;7.00;;;5.67;;
6671;SDS011;3372;48.690;12.362;2023-05-07T09:28:00;6.37;;;5.70;;
6671;SDS011;3372;48.690;12.362;2023-05-07T09:30:28;6.73;;;6.03;;
6671;SDS011;3372;48.690;12.362;2023-05-07T09:32:58;7.00;;;6.30;;
6671;SDS011;3372;48.690;12.362;2023-05-07T09:35:25;8.00;;;5.97;;
6671;SDS011;3372;48.690;12.362;2023-05-07T09:37:54;7.87;;;7.10;;
6671;SDS011;3372;48.690;12.362;2023-05-07T09:40:26;6.27;;;5.60;;
6671;SDS011;3372;48.690;12.362;2023-05-07T09:42:53;6.37;;;5.77;;
6671;SDS011;3372;48.690;12.362;2023-05-07T09:45:22;7.00;;;6.00;;
6671;SDS011;3372;48.690;12.362;2023-05-07T09:47:53;6.40;;;5.80;;
6671;SDS011;3372;48.690;12.362;2023-05-07T09:50:30;8.77;;;5.80;;
6671;SDS011;3372;48.690;12.362;2023-05-07T09:53:02;8.57;;;6.77;;
6671;SDS011;3372;48.690;12.362;2023-05-07T09:55:29;8.10;;;5.57;;
6671;SDS011;3372;48.690;12.362;2023-05-07T09:57:55;7.60;;;6.77;;
6671;SDS011;3372;48.690;12.362;2023-05-07T10:00:22;6.00;;;5.40;;
6671;SDS011;3372;48.690;12.362;2023-05-07T10:02:49;6.50;;;5.90;;
6671;SDS011;3372;48.690;12.362;2023-05-07T10:05:17;7.23;;;6.17;;
6671;SDS011;3372;48.690;12.362;2023-05-07T10:07:45;7.00;;;6.30;;
6671;SDS011;3372;48.690;12.362;2023-05-07T10:10:11;6.60;;;6.00;;
6671;SDS011;3372;48.690;12.362;2023-05-07T10:12:37;7.30;;;6.23;;
6671;SDS011;3372;48.690;12.362;2023-05-07T10:17:39;5.40;;;4.90;;
6671;SDS011;3372;48.690;12.362;2023-05-07T10:20:06;5.83;;;4.60;;
6671;SDS011;3372;48.690;12.362;2023-05-07T10:22:33;5.33;;;4.80;;
6671;SDS011;3372;48.690;12.362;2023-05-07T10:30:26;5.83;;;4.37;;
6671;SDS011;3372;48.690;12.362;2023-05-07T10:33:13;7.10;;;6.20;;
6671;SDS011;3372;48.690;12.362;2023-05-07T10:40:52;4.23;;;3.83;;
6671;SDS011;3372;48.690;12.362;2023-05-07T10:43:18;3.90;;;3.40;;
6671;SDS011;3372;48.690;12.362;2023-05-07T10:45:44;4.10;;;3.70;;
6671;SDS011;3372;48.690;12.362;2023-05-07T10:51:24;5.57;;;3.67;;
6671;SDS011;3372;48.690;12.362;2023-05-07T10:54:11;4.40;;;3.10;;
6671;SDS011;3372;48.690;12.362;2023-05-07T10:56:41;3.80;;;3.13;;
6671;SDS011;3372;48.690;12.362;2023-05-07T11:01:53;4.20;;;3.40;;
6671;SDS011;3372;48.690;12.362;2023-05-07T11:04:20;4.50;;;3.83;;
6671;SDS011;3372;48.690;12.362;2023-05-07T11:45:49;4.47;;;3.77;;
6671;SDS011;3372;48.690;12.362;2023-05-07T11:53:53;4.27;;;3.87;;
6671;SDS011;3372;48.690;12.362;2023-05-07T11:56:19;3.53;;;3.23;;
6671;SDS011;3372;48.690;12.362;2023-05-07T11:58:45;3.87;;;3.30;;
6671;SDS011;3372;48.690;12.362;2023-05-07T12:01:12;3.80;;;3.40;;
6671;SDS011;3372;48.690;12.362;2023-05-07T12:03:42;3.90;;;3.27;;
6671;SDS011;3372;48.690;12.362;2023-05-07T12:06:10;4.10;;;2.80;;
6671;SDS011;3372;48.690;12.362;2023-05-07T12:08:38;4.03;;;3.30;;
6671;SDS011;3372;48.690;12.362;2023-05-07T12:11:06;3.90;;;3.50;;
6671;SDS011;3372;48.690;12.362;2023-05-07T12:13:34;3.20;;;3.00;;
6671;SDS011;3372;48.690;12.362;2023-05-07T12:16:00;3.30;;;2.83;;
6671;SDS011;3372;48.690;12.362;2023-05-07T12:18:28;3.90;;;3.17;;
6671;SDS011;3372;48.690;12.362;2023-05-07T12:20:54;3.33;;;2.50;;
6671;SDS011;3372;48.690;12.362;2023-05-07T12:23:21;6.00;;;3.53;;
6671;SDS011;3372;48.690;12.362;2023-05-07T12:25:47;4.97;;;3.20;;
6671;SDS011;3372;48.690;12.362;2023-05-07T12:28:17;5.57;;;3.50;;
6671;SDS011;3372;48.690;12.362;2023-05-07T12:30:44;5.60;;;3.90;;
6671;SDS011;3372;48.690;12.362;2023-05-07T12:33:16;3.60;;;3.20;;
6671;SDS011;3372;48.690;12.362;2023-05-07T12:35:49;4.70;;;3.90;;
6671;SDS011;3372;48.690;12.362;2023-05-07T12:38:16;4.20;;;3.00;;
6671;SDS011;3372;48.690;12.362;2023-05-07T12:40:47;4.30;;;3.63;;
6671;SDS011;3372;48.690;12.362;2023-05-07T12:43:26;4.00;;;3.00;;
6671;SDS011;3372;48.690;12.362;2023-05-07T12:45:54;3.60;;;2.70;;
6671;SDS011;3372;48.690;12.362;2023-05-07T12:48:20;4.00;;;3.10;;
6671;SDS011;3372;48.690;12.362;2023-05-07T12:50:50;4.10;;;3.40;;
6671;SDS011;3372;48.690;12.362;2023-05-07T12:53:16;5.97;;;3.23;;
6671;SDS011;3372;48.690;12.362;2023-05-07T12:55:45;6.50;;;3.10;;
6671;SDS011;3372;48.690;12.362;2023-05-07T13:00:47;4.00;;;3.60;;
6671;SDS011;3372;48.690;12.362;2023-05-07T13:03:20;4.37;;;3.17;;
6671;SDS011;3372;48.690;12.362;2023-05-07T13:05:54;4.27;;;2.83;;
6671;SDS011;3372;48.690;12.362;2023-05-07T13:08:24;6.27;;;2.80;;
6671;SDS011;3372;48.690;12.362;2023-05-07T13:10:52;5.20;;;4.40;;
6671;SDS011;3372;48.690;12.362;2023-05-07T13:13:18;5.30;;;2.83;;
6671;SDS011;3372;48.690;12.362;2023-05-07T13:15:45;3.13;;;2.63;;
6671;SDS011;3372;48.690;12.362;2023-05-07T13:18:11;3.47;;;2.73;;
6671;SDS011;3372;48.690;12.362;2023-05-07T13:20:36;3.10;;;2.77;;
6671;SDS011;3372;48.690;12.362;2023-05-07T13:23:02;3.00;;;2.73;;
6671;SDS011;3372;48.690;12.362;2023-05-07T13:25:29;3.10;;;2.80;;
6671;SDS011;3372;48.690;12.362;2023-05-07T13:27:56;3.10;;;2.80;;
6671;SDS011;3372;48.690;12.362;2023-05-07T13:30:22;3.20;;;2.70;;
6671;SDS011;3372;48.690;12.362;2023-05-07T13:32:47;3.40;;;3.10;;
6671;SDS011;3372;48.690;12.362;2023-05-07T13:35:14;3.30;;;3.00;;
6671;SDS011;3372;48.690;12.362;2023-05-07T13:37:39;3.87;;;3.40;;
6671;SDS011;3372;48.690;12.362;2023-05-07T13:40:05;3.67;;;3.03;;
6671;SDS011;3372;48.690;12.362;2023-05-07T13:42:31;3.90;;;2.93;;
6671;SDS011;3372;48.690;12.362;2023-05-07T13:44:57;4.07;;;3.00;;
6671;SDS011;3372;48.690;12.362;2023-05-07T13:47:22;3.20;;;2.90;;
6671;SDS011;3372;48.690;12.362;2023-05-07T13:49:48;3.50;;;2.87;;
6671;SDS011;3372;48.690;12.362;2023-05-07T13:52:15;4.00;;;3.47;;
6671;SDS011;3372;48.690;12.362;2023-05-07T13:54:41;5.70;;;3.90;;
6671;SDS011;3372;48.690;12.362;2023-05-07T13:57:07;3.80;;;3.20;;
6671;SDS011;3372;48.690;12.362;2023-05-07T13:59:33;3.50;;;3.20;;
6671;SDS011;3372;48.690;12.362;2023-05-07T14:01:59;4.00;;;3.60;;
6671;SDS011;3372;48.690;12.362;2023-05-07T14:04:24;4.33;;;3.93;;
6671;SDS011;3372;48.690;12.362;2023-05-07T14:06:50;4.50;;;4.10;;
6671;SDS011;3372;48.690;12.362;2023-05-07T14:09:16;4.90;;;4.40;;
6671;SDS011;3372;48.690;12.362;2023-05-07T14:11:41;5.87;;;4.50;;
6671;SDS011;3372;48.690;12.362;2023-05-07T14:14:07;5.30;;;3.90;;
6671;SDS011;3372;48.690;12.362;2023-05-07T14:16:35;4.70;;;4.30;;
6671;SDS011;3372;48.690;12.362;2023-05-07T14:19:01;4.80;;;3.90;;
6671;SDS011;3372;48.690;12.362;2023-05-07T14:21:26;4.57;;;4.10;;
6671;SDS011;3372;48.690;12.362;2023-05-07T14:23:52;6.03;;;4.70;;
6671;SDS011;3372;48.690;12.362;2023-05-07T14:26:18;4.63;;;4.10;;
6671;SDS011;3372;48.690;12.362;2023-05-07T14:28:44;5.23;;;4.30;;
6671;SDS011;3372;48.690;12.362;2023-05-07T14:31:11;5.07;;;4.57;;
6671;SDS011;3372;48.690;12.362;2023-05-07T14:33:37;5.87;;;5.27;;
6671;SDS011;3372;48.690;12.362;2023-05-07T14:36:03;5.83;;;5.33;;
6671;SDS011;3372;48.690;12.362;2023-05-07T14:38:29;7.77;;;5.30;;
6671;SDS011;3372;48.690;12.362;2023-05-07T14:40:55;6.10;;;5.40;;
6671;SDS011;3372;48.690;12.362;2023-05-07T14:43:21;5.50;;;4.80;;
6671;SDS011;3372;48.690;12.362;2023-05-07T14:45:47;7.43;;;5.10;;
6671;SDS011;3372;48.690;12.362;2023-05-07T14:48:12;5.63;;;4.67;;
6671;SDS011;3372;48.690;12.362;2023-05-07T14:50:40;5.63;;;4.80;;
6671;SDS011;3372;48.690;12.362;2023-05-07T14:53:07;8.07;;;5.30;;
6671;SDS011;3372;48.690;12.362;2023-05-07T14:55:33;5.63;;;5.03;;
6671;SDS011;3372;48.690;12.362;2023-05-07T14:57:59;5.70;;;4.60;;
6671;SDS011;3372;48.690;12.362;2023-05-07T15:00:25;5.67;;;5.00;;
6671;SDS011;3372;48.690;12.362;2023-05-07T15:02:51;5.67;;;5.13;;
6671;SDS011;3372;48.690;12.362;2023-05-07T15:05:16;5.73;;;4.77;;
6671;SDS011;3372;48.690;12.362;2023-05-07T15:07:44;5.50;;;5.00;;
6671;SDS011;3372;48.690;12.362;2023-05-07T15:10:09;4.87;;;4.47;;
6671;SDS011;3372;48.690;12.362;2023-05-07T15:12:35;5.30;;;4.80;;
6671;SDS011;3372;48.690;12.362;2023-05-07T15:15:01;6.03;;;4.93;;
6671;SDS011;3372;48.690;12.362;2023-05-07T15:17:27;5.73;;;4.90;;
6671;SDS011;3372;48.690;12.362;2023-05-07T15:19:52;8.17;;;5.00;;
6671;SDS011;3372;48.690;12.362;2023-05-07T15:22:18;8.30;;;5.00;;
6671;SDS011;3372;48.690;12.362;2023-05-07T15:24:46;5.90;;;4.80;;
6671;SDS011;3372;48.690;12.362;2023-05-07T15:27:11;5.17;;;4.13;;
6671;SDS011;3372;48.690;12.362;2023-05-07T15:29:37;4.47;;;4.07;;
6671;SDS011;3372;48.690;12.362;2023-05-07T15:32:02;5.10;;;4.57;;
6671;SDS011;3372;48.690;12.362;2023-05-07T15:34:28;5.30;;;4.67;;
6671;SDS011;3372;48.690;12.362;2023-05-07T15:36:55;5.27;;;4.00;;
6671;SDS011;3372;48.690;12.362;2023-05-07T15:39:22;4.53;;;3.60;;
6671;SDS011;3372;48.690;12.362;2023-05-07T15:41:47;5.83;;;4.30;;
6671;SDS011;3372;48.690;12.362;2023-05-07T15:44:13;5.37;;;3.50;;
6671;SDS011;3372;48.690;12.362;2023-05-07T15:46:38;3.90;;;3.50;;
6671;SDS011;3372;48.690;12.362;2023-05-07T15:49:04;5.00;;;3.60;;
6671;SDS011;3372;48.690;12.362;2023-05-07T15:51:30;4.10;;;3.70;;
6671;SDS011;3372;48.690;12.362;2023-05-07T15:53:56;4.10;;;3.40;;
6671;SDS011;3372;48.690;12.362;2023-05-07T15:56:22;4.97;;;3.93;;
6671;SDS011;3372;48.690;12.362;2023-05-07T15:58:50;3.60;;;3.30;;
6671;SDS011;3372;48.690;12.362;2023-05-07T16:01:17;3.70;;;3.40;;